createdAt,value
2022-10-17T00:01:49.375Z,98301.75
2022-10-17T00:04:16.475Z,98301.84
2022-10-17T00:06:43.335Z,98295.19
2022-10-17T00:09:10.154Z,98299.59
2022-10-17T00:11:37.082Z,98305.06
2022-10-17T00:14:04.165Z,98307.19
2022-10-17T00:16:36.785Z,98309.13
2022-10-17T00:19:08.034Z,98308.53
2022-10-17T00:21:35.048Z,98319.22
2022-10-17T00:24:02.071Z,98321.13
2022-10-17T00:26:29.640Z,98324.72
2022-10-17T00:28:57.170Z,98323.25
2022-10-17T00:31:25.113Z,98330.63
2022-10-17T00:33:53.053Z,98323.88
2022-10-17T00:36:26.601Z,98325.88
2022-10-17T00:38:57.573Z,98320.06
2022-10-17T00:41:31.290Z,98320.31
2022-10-17T00:43:59.770Z,98323.06
2022-10-17T00:46:31.503Z,98320.66
2022-10-17T00:49:04.639Z,98326.00
2022-10-17T00:51:42.914Z,98326.50
2022-10-17T00:54:13.682Z,98324.13
2022-10-17T00:56:40.500Z,98317.25
2022-10-17T00:59:10.802Z,98324.44
2022-10-17T01:01:38.752Z,98315.19
2022-10-17T01:04:05.743Z,98326.84
2022-10-17T01:06:32.893Z,98321.84
2022-10-17T01:08:59.736Z,98338.56
2022-10-17T01:12:01.297Z,98334.41
2022-10-17T01:15:11.983Z,98341.53
2022-10-17T01:18:23.889Z,98334.88
2022-10-17T01:21:17.885Z,98331.63
2022-10-17T01:24:15.534Z,98337.91
2022-10-17T01:27:06.230Z,98333.66
2022-10-17T01:30:03.098Z,98335.78
2022-10-17T01:32:49.603Z,98335.16
2022-10-17T01:35:39.665Z,98331.00
2022-10-17T01:38:43.026Z,98337.19
2022-10-17T01:42:10.633Z,98334.81
2022-10-17T01:44:58.375Z,98334.09
2022-10-17T01:47:31.468Z,98325.66
2022-10-17T01:52:53.916Z,98327.53
2022-10-17T01:55:33.582Z,98326.00
2022-10-17T01:58:31.824Z,98331.22
2022-10-17T02:01:04.615Z,98331.34
2022-10-17T02:03:34.417Z,98329.78
2022-10-17T02:06:02.901Z,98323.88
2022-10-17T02:08:49.008Z,98335.34
2022-10-17T02:11:26.892Z,98333.69
2022-10-17T02:14:33.797Z,98324.44
2022-10-17T02:17:52.994Z,98323.13
2022-10-17T02:20:37.305Z,98320.00
2022-10-17T02:23:16.540Z,98323.78
2022-10-17T02:26:13.997Z,98320.47
2022-10-17T02:28:45.131Z,98312.88
2022-10-17T02:31:18.027Z,98312.97
2022-10-17T02:33:55.872Z,98318.53
2022-10-17T02:36:30.830Z,98310.00
2022-10-17T02:39:01.488Z,98322.31
2022-10-17T02:41:30.841Z,98321.59
2022-10-17T02:44:00.224Z,98317.41
2022-10-17T02:46:31.506Z,98322.97
2022-10-17T02:49:08.631Z,98316.22
2022-10-17T02:52:13.073Z,98320.00
2022-10-17T02:54:52.178Z,98326.25
2022-10-17T02:57:34.200Z,98324.81
2022-10-17T03:00:06.408Z,98325.03
2022-10-17T03:02:52.693Z,98331.19
2022-10-17T03:05:27.445Z,98324.44
2022-10-17T03:07:55.527Z,98333.28
2022-10-17T03:10:23.069Z,98334.22
2022-10-17T03:12:49.986Z,98342.16
2022-10-17T03:15:16.841Z,98327.59
2022-10-17T03:20:15.583Z,98342.72
2022-10-17T03:22:42.327Z,98353.34
2022-10-17T03:25:09.148Z,98350.97
2022-10-17T03:27:36.098Z,98340.53
2022-10-17T03:30:02.966Z,98352.63
2022-10-17T03:32:29.711Z,98356.38
2022-10-17T03:34:56.515Z,98355.78
2022-10-17T03:37:23.383Z,98358.47
2022-10-17T03:39:50.197Z,98362.25
2022-10-17T03:42:17.117Z,98371.00
2022-10-17T03:44:43.965Z,98373.78
2022-10-17T03:47:13.454Z,98369.00
2022-10-17T03:49:41.570Z,98376.81
2022-10-17T03:52:12.651Z,98375.38
2022-10-17T03:54:39.785Z,98384.22
2022-10-17T03:57:06.629Z,98392.16
2022-10-17T03:59:33.476Z,98391.44
2022-10-17T04:02:00.325Z,98395.81
2022-10-17T04:04:27.236Z,98397.75
2022-10-17T04:06:54.011Z,98401.53
2022-10-17T04:09:20.832Z,98398.09
2022-10-17T04:11:50.195Z,98395.59
2022-10-17T04:14:17.003Z,98401.03
2022-10-17T04:16:43.911Z,98402.03
2022-10-17T04:19:13.689Z,98402.97
2022-10-17T04:21:41.096Z,98396.44
2022-10-17T04:26:53.184Z,98401.19
2022-10-17T04:29:21.946Z,98404.75
2022-10-17T04:31:49.810Z,98396.22
2022-10-17T04:34:16.809Z,98393.72
2022-10-17T04:36:43.646Z,98395.59
2022-10-17T04:39:10.515Z,98401.63
2022-10-17T04:41:37.424Z,98406.00
2022-10-17T04:44:04.372Z,98402.69
2022-10-17T04:46:34.040Z,98406.00
2022-10-17T04:49:01.086Z,98400.81
2022-10-17T04:51:27.942Z,98403.41
2022-10-17T04:53:55.191Z,98410.28
2022-10-17T04:56:24.343Z,98402.56
2022-10-17T04:58:53.348Z,98412.97
2022-10-17T05:01:23.193Z,98414.88
2022-10-17T05:03:50.453Z,98408.06
2022-10-17T05:06:23.104Z,98416.91
2022-10-17T05:08:50.555Z,98413.69
2022-10-17T05:11:23.611Z,98411.09
2022-10-17T05:13:53.846Z,98410.38
2022-10-17T05:16:21.354Z,98415.69
2022-10-17T05:18:54.045Z,98419.31
2022-10-17T05:21:24.141Z,98418.47
2022-10-17T05:23:51.561Z,98410.03
2022-10-17T05:26:18.709Z,98407.66
2022-10-17T05:28:45.537Z,98415.44
2022-10-17T05:31:12.776Z,98404.22
2022-10-17T05:33:40.434Z,98412.13
2022-10-17T05:36:08.368Z,98409.41
2022-10-17T05:38:35.671Z,98425.84
2022-10-17T05:41:05.468Z,98425.84
2022-10-17T05:43:33.271Z,98431.06
2022-10-17T05:46:06.783Z,98429.41
2022-10-17T05:48:34.682Z,98429.41
2022-10-17T05:51:06.751Z,98427.63
2022-10-17T05:53:41.181Z,98437.00
2022-10-17T05:56:11.723Z,98430.94
2022-10-17T05:58:50.224Z,98442.19
2022-10-17T06:01:19.112Z,98438.66
2022-10-17T06:03:45.891Z,98436.16
2022-10-17T06:06:14.966Z,98451.56
2022-10-17T06:08:42.500Z,98438.44
2022-10-17T06:11:10.504Z,98450.34
2022-10-17T06:13:38.735Z,98453.66
2022-10-17T06:16:06.612Z,98454.28
2022-10-17T06:18:33.907Z,98459.19
2022-10-17T06:21:07.084Z,98462.31
2022-10-17T06:23:43.826Z,98464.50
2022-10-17T06:26:10.832Z,98455.34
2022-10-17T06:28:37.922Z,98463.28
2022-10-17T06:31:07.527Z,98462.44
2022-10-17T06:33:35.624Z,98474.53
2022-10-17T06:36:04.759Z,98486.63
2022-10-17T06:38:31.508Z,98488.41
2022-10-17T06:41:13.521Z,98487.09
2022-10-17T06:43:43.313Z,98484.34
2022-10-17T06:46:10.320Z,98486.72
2022-10-17T06:48:37.072Z,98477.94
2022-10-17T06:51:06.586Z,98490.56
2022-10-17T06:53:35.284Z,98488.53
2022-10-17T06:56:04.241Z,98493.31
2022-10-17T06:58:34.985Z,98493.09
2022-10-17T07:01:05.929Z,98494.69
2022-10-17T07:03:33.350Z,98490.78
2022-10-17T07:06:00.535Z,98493.78
2022-10-17T07:08:27.931Z,98502.97
2022-10-17T07:10:56.012Z,98508.69
2022-10-17T07:13:23.651Z,98508.56
2022-10-17T07:15:50.484Z,98509.16
2022-10-17T07:18:17.367Z,98511.81
2022-10-17T07:20:44.171Z,98522.00
2022-10-17T07:23:10.975Z,98514.88
2022-10-17T07:25:40.086Z,98520.28
2022-10-17T07:28:07.171Z,98513.72
2022-10-17T07:30:33.935Z,98520.44
2022-10-17T07:33:05.894Z,98527.88
2022-10-17T07:35:32.767Z,98524.50
2022-10-17T07:37:59.613Z,98517.72
2022-10-17T07:40:26.426Z,98514.28
2022-10-17T07:42:53.360Z,98521.03
2022-10-17T07:45:20.194Z,98512.03
2022-10-17T07:47:47.307Z,98518.25
2022-10-17T07:50:14.371Z,98525.63
2022-10-17T07:52:43.148Z,98526.78
2022-10-17T07:55:10.063Z,98519.63
2022-10-17T07:57:36.930Z,98513.72
2022-10-17T08:00:04.381Z,98515.53
2022-10-17T08:02:31.712Z,98517.28
2022-10-17T08:04:58.646Z,98516.00
2022-10-17T08:07:29.358Z,98519.13
2022-10-17T08:09:56.453Z,98516.69
2022-10-17T08:12:24.191Z,98520.88
2022-10-17T08:14:50.905Z,98521.31
2022-10-17T08:17:17.638Z,98523.84
2022-10-17T08:19:44.412Z,98517.19
2022-10-17T08:22:11.330Z,98514.56
2022-10-17T08:24:38.073Z,98527.56
2022-10-17T08:27:11.230Z,98516.19
2022-10-17T08:29:39.747Z,98520.44
2022-10-17T08:32:09.632Z,98528.03
2022-10-17T08:34:36.736Z,98531.75
2022-10-17T08:37:03.732Z,98531.16
2022-10-17T08:39:30.658Z,98523.97
2022-10-17T08:42:40.616Z,98521.88
2022-10-17T08:45:32.276Z,98529.06
2022-10-17T08:48:04.386Z,98524.53
2022-10-17T08:50:44.229Z,98512.47
2022-10-17T08:53:30.564Z,98514.31
2022-10-17T08:56:02.828Z,98514.00
2022-10-17T08:58:34.955Z,98506.59
2022-10-17T09:01:46.046Z,98506.44
2022-10-17T09:04:42.728Z,98512.53
2022-10-17T09:07:41.752Z,98504.91
2022-10-17T09:10:52.290Z,98504.09
2022-10-17T09:13:51.551Z,98505.88
2022-10-17T09:17:12.080Z,98509.50
2022-10-17T09:20:24.031Z,98498.69
2022-10-17T09:23:03.520Z,98489.31
2022-10-17T09:25:41.639Z,98495.88
2022-10-17T09:28:39.672Z,98492.16
2022-10-17T09:31:24.051Z,98490.09
2022-10-17T09:33:55.273Z,98488.41
2022-10-17T09:36:32.702Z,98496.25
2022-10-17T09:39:21.392Z,98488.06
2022-10-17T09:41:57.312Z,98490.75
2022-10-17T09:44:25.381Z,98482.44
2022-10-17T09:47:13.341Z,98491.22
2022-10-17T09:49:44.704Z,98492.81
2022-10-17T09:52:19.677Z,98503.69
2022-10-17T09:55:32.783Z,98494.69
2022-10-17T09:58:03.127Z,98481.91
2022-10-17T10:00:40.966Z,98488.53
2022-10-17T10:03:13.478Z,98495.91
2022-10-17T10:05:41.570Z,98493.25
2022-10-17T10:08:19.182Z,98494.16
2022-10-17T10:10:46.128Z,98497.41
2022-10-17T10:13:20.197Z,98488.25
2022-10-17T10:15:50.449Z,98496.78
2022-10-17T10:18:34.816Z,98490.22
2022-10-17T10:21:16.926Z,98485.00
2022-10-17T10:24:03.170Z,98480.75
2022-10-17T10:26:42.544Z,98485.25
2022-10-17T10:29:32.362Z,98479.91
2022-10-17T10:32:11.004Z,98481.84
2022-10-17T10:34:49.268Z,98477.97
2022-10-17T10:37:24.428Z,98481.81
2022-10-17T10:39:56.412Z,98473.69
2022-10-17T10:42:28.872Z,98470.41
2022-10-17T10:45:42.905Z,98474.16
2022-10-17T10:48:26.979Z,98471.56
2022-10-17T10:51:14.035Z,98474.63
2022-10-17T10:54:22.062Z,98467.72
2022-10-17T10:56:58.147Z,98455.16
2022-10-17T10:59:43.529Z,98457.28
2022-10-17T11:02:41.836Z,98453.06
2022-10-17T11:05:35.346Z,98449.25
2022-10-17T11:08:33.940Z,98446.72
2022-10-17T11:11:26.103Z,98437.59
2022-10-17T11:14:12.994Z,98436.44
2022-10-17T11:16:52.403Z,98432.78
2022-10-17T11:19:44.642Z,98427.28
2022-10-17T11:22:17.282Z,98433.28
2022-10-17T11:24:57.057Z,98431.00
2022-10-17T11:27:25.860Z,98431.63
2022-10-17T11:29:52.703Z,98436.47
2022-10-17T11:32:25.516Z,98430.97
2022-10-17T11:35:01.169Z,98424.81
2022-10-17T11:37:35.246Z,98419.66
2022-10-17T11:40:31.198Z,98427.16
2022-10-17T11:43:29.075Z,98425.88
2022-10-17T11:46:03.432Z,98436.75
2022-10-17T11:48:50.071Z,98434.50
2022-10-17T11:54:16.146Z,98428.09
2022-10-17T11:57:06.910Z,98419.47
2022-10-17T12:00:30.813Z,98422.41
2022-10-17T12:03:33.412Z,98423.63
2022-10-17T12:06:48.602Z,98432.03
2022-10-17T12:09:43.213Z,98425.88
2022-10-17T12:12:10.041Z,98423.25
2022-10-17T12:14:42.454Z,98422.94
2022-10-17T12:17:41.015Z,98421.69
2022-10-17T12:20:28.412Z,98412.47
2022-10-17T12:23:02.935Z,98418.81
2022-10-17T12:25:39.018Z,98413.50
2022-10-17T12:28:15.894Z,98422.75
2022-10-17T12:31:12.944Z,98425.06
2022-10-17T12:33:50.957Z,98415.22
2022-10-17T12:36:17.645Z,98423.88
2022-10-17T12:38:51.624Z,98423.50
2022-10-17T12:41:38.769Z,98412.81
2022-10-17T12:44:14.932Z,98419.81
2022-10-17T12:46:46.570Z,98418.56
2022-10-17T12:49:42.592Z,98408.88
2022-10-17T12:52:32.219Z,98403.75
2022-10-17T12:55:14.205Z,98401.50
2022-10-17T12:58:08.118Z,98414.84
2022-10-17T13:01:11.638Z,98400.47
2022-10-17T13:03:45.742Z,98396.38
2022-10-17T13:06:22.967Z,98396.78
2022-10-17T13:09:03.601Z,98398.44
2022-10-17T13:11:35.329Z,98394.53
2022-10-17T13:14:11.838Z,98398.63
2022-10-17T13:16:51.195Z,98386.06
2022-10-17T13:19:23.512Z,98382.78
2022-10-17T13:21:58.697Z,98382.34
2022-10-17T13:24:39.531Z,98387.31
2022-10-17T13:27:30.564Z,98384.84
2022-10-17T13:30:02.270Z,98396.38
2022-10-17T13:32:39.142Z,98389.78
2022-10-17T13:35:13.208Z,98383.59
2022-10-17T13:37:50.242Z,98391.13
2022-10-17T13:40:49.696Z,98395.31
2022-10-17T13:43:26.050Z,98393.19
2022-10-17T13:46:19.326Z,98406.94
2022-10-17T13:48:49.894Z,98393.22
2022-10-17T13:51:17.358Z,98400.69
2022-10-17T13:53:44.614Z,98400.69
2022-10-17T13:56:28.324Z,98405.59
2022-10-17T13:59:23.024Z,98410.16
2022-10-17T14:01:52.103Z,98413.09
2022-10-17T14:04:20.368Z,98407.19
2022-10-17T14:06:51.241Z,98411.84
2022-10-17T14:12:14.221Z,98409.50
2022-10-17T14:15:09.395Z,98408.88
2022-10-17T14:17:35.774Z,98417.63
2022-10-17T14:20:26.659Z,98415.25
2022-10-17T14:23:17.529Z,98415.91
2022-10-17T14:25:40.815Z,98413.66
2022-10-17T14:28:09.332Z,98423.09
2022-10-17T14:30:57.263Z,98414.47
2022-10-17T14:33:33.904Z,98423.34
2022-10-17T14:36:04.018Z,98414.50
2022-10-17T14:38:31.643Z,98402.22
2022-10-17T14:44:17.845Z,98411.56
2022-10-17T14:46:50.715Z,98410.34
2022-10-17T14:49:32.381Z,98403.84
2022-10-17T14:52:18.643Z,98408.78
2022-10-17T14:54:48.475Z,98410.66
2022-10-17T14:57:43.003Z,98419.38
2022-10-17T15:00:16.049Z,98412.34
2022-10-17T15:02:44.738Z,98424.44
2022-10-17T15:05:13.574Z,98422.41
2022-10-17T15:07:41.893Z,98420.84
2022-10-17T15:10:32.986Z,98422.06
2022-10-17T15:13:26.267Z,98429.28
2022-10-17T15:15:51.717Z,98416.91
2022-10-17T15:18:18.517Z,98426.03
2022-10-17T15:20:45.283Z,98431.47
2022-10-17T15:23:12.000Z,98432.00
2022-10-17T15:25:39.701Z,98432.13
2022-10-17T15:28:06.715Z,98434.34
2022-10-17T15:30:36.740Z,98442.25
2022-10-17T15:33:03.900Z,98443.41
2022-10-17T15:35:31.631Z,98447.19
2022-10-17T15:37:58.362Z,98442.78
2022-10-17T15:40:29.144Z,98439.09
2022-10-17T15:42:57.431Z,98434.47
2022-10-17T15:45:24.911Z,98437.44
2022-10-17T15:47:56.903Z,98441.44
2022-10-17T15:50:23.787Z,98447.84
2022-10-17T15:52:51.073Z,98442.59
2022-10-17T15:55:19.306Z,98443.22
2022-10-17T15:57:48.026Z,98443.41
2022-10-17T16:00:24.431Z,98451.09
2022-10-17T16:02:51.276Z,98447.59
2022-10-17T16:05:25.985Z,98450.53
2022-10-17T16:07:54.000Z,98442.50
2022-10-17T16:10:22.395Z,98454.84
2022-10-17T16:12:50.252Z,98455.22
2022-10-17T16:15:26.402Z,98452.13
2022-10-17T16:17:55.939Z,98454.97
2022-10-17T16:20:24.882Z,98470.22
2022-10-17T16:22:53.136Z,98470.50
2022-10-17T16:25:28.990Z,98468.38
2022-10-17T16:27:58.575Z,98479.72
2022-10-17T16:30:28.962Z,98479.72
2022-10-17T16:32:58.983Z,98488.44
2022-10-17T16:35:33.313Z,98483.72
2022-10-17T16:38:04.546Z,98492.09
2022-10-17T16:40:31.430Z,98494.03
2022-10-17T16:42:58.327Z,98497.94
2022-10-17T16:45:25.248Z,98487.47
2022-10-17T16:47:53.042Z,98497.19
2022-10-17T16:50:19.980Z,98497.13
2022-10-17T16:52:46.743Z,98505.25
2022-10-17T16:55:13.611Z,98497.44
2022-10-17T17:00:12.802Z,98505.72
2022-10-17T17:02:39.904Z,98516.03
2022-10-17T17:05:07.907Z,98513.50
2022-10-17T17:07:34.667Z,98516.06
2022-10-17T17:10:01.407Z,98514.31
2022-10-17T17:12:28.146Z,98515.09
2022-10-17T17:14:54.850Z,98515.84
2022-10-17T17:17:30.603Z,98515.84
2022-10-17T17:20:04.649Z,98524.53
2022-10-17T17:22:31.471Z,98527.91
2022-10-17T17:24:58.170Z,98522.69
2022-10-17T17:27:28.676Z,98526.22
2022-10-17T17:29:55.689Z,98533.03
2022-10-17T17:32:27.765Z,98533.91
2022-10-17T17:34:54.581Z,98526.75
2022-10-17T17:37:21.445Z,98533.72
2022-10-17T17:39:48.290Z,98528.22
2022-10-17T17:42:15.216Z,98534.72
2022-10-17T17:44:42.044Z,98538.75
2022-10-17T17:47:08.883Z,98544.59
2022-10-17T17:49:35.781Z,98548.47
2022-10-17T17:54:30.375Z,98543.66
2022-10-17T17:56:57.183Z,98552.97
2022-10-17T17:59:23.980Z,98554.34
2022-10-17T18:01:50.867Z,98552.28
2022-10-17T18:04:17.742Z,98561.41
2022-10-17T18:06:44.652Z,98556.59
2022-10-17T18:09:11.515Z,98563.94
2022-10-17T18:11:38.473Z,98566.13
2022-10-17T18:14:08.458Z,98570.16
2022-10-17T18:16:37.316Z,98567.28
2022-10-17T18:19:08.780Z,98571.56
2022-10-17T18:21:37.391Z,98564.78
2022-10-17T18:24:04.992Z,98572.38
2022-10-17T18:26:32.787Z,98564.09
2022-10-17T18:28:59.667Z,98556.00
2022-10-17T18:31:32.187Z,98565.44
2022-10-17T18:34:02.979Z,98572.88
2022-10-17T18:36:31.956Z,98575.94
2022-10-17T18:39:01.415Z,98585.88
2022-10-17T18:41:28.484Z,98592.63
2022-10-17T18:43:57.163Z,98593.88
2022-10-17T18:46:28.359Z,98603.94
2022-10-17T18:48:56.941Z,98605.47
2022-10-17T18:51:25.867Z,98597.97
2022-10-17T18:53:56.053Z,98601.69
2022-10-17T18:56:23.614Z,98595.75
2022-10-17T18:58:51.493Z,98589.81
2022-10-17T19:01:22.083Z,98595.47
2022-10-17T19:03:51.147Z,98602.63
2022-10-17T19:06:22.404Z,98600.53
2022-10-17T19:08:49.375Z,98607.16
2022-10-17T19:11:22.663Z,98598.97
2022-10-17T19:13:50.015Z,98609.03
2022-10-17T19:16:27.500Z,98611.06
2022-10-17T19:19:02.248Z,98608.03
2022-10-17T19:21:29.269Z,98608.28
2022-10-17T19:24:00.444Z,98614.00
2022-10-17T19:26:30.584Z,98612.06
2022-10-17T19:28:59.995Z,98613.38
2022-10-17T19:31:29.967Z,98611.28
2022-10-17T19:33:57.224Z,98610.81
2022-10-17T19:36:32.456Z,98620.63
2022-10-17T19:39:04.255Z,98618.41
2022-10-17T19:41:34.462Z,98617.94
2022-10-17T19:44:01.702Z,98625.22
2022-10-17T19:46:30.891Z,98626.44
2022-10-17T19:48:58.274Z,98612.88
2022-10-17T19:51:26.399Z,98617.19
2022-10-17T19:53:57.350Z,98627.91
2022-10-17T19:56:25.255Z,98617.81
2022-10-17T19:58:54.053Z,98618.91
2022-10-17T20:01:27.437Z,98625.34
2022-10-17T20:03:55.391Z,98623.22
2022-10-17T20:06:23.361Z,98624.44
2022-10-17T20:08:50.795Z,98614.31
2022-10-17T20:11:28.136Z,98619.81
2022-10-17T20:13:56.643Z,98630.56
2022-10-17T20:16:29.577Z,98628.31
2022-10-17T20:19:02.580Z,98632.97
2022-10-17T20:21:35.195Z,98639.28
2022-10-17T20:24:05.047Z,98637.06
2022-10-17T20:26:38.163Z,98647.06
2022-10-17T20:29:11.609Z,98656.22
2022-10-17T20:31:41.315Z,98655.50
2022-10-17T20:34:11.701Z,98658.34
2022-10-17T20:36:38.518Z,98666.34
2022-10-17T20:39:07.150Z,98666.59
2022-10-17T20:41:34.175Z,98665.06
2022-10-17T20:44:01.213Z,98674.13
2022-10-17T20:46:37.160Z,98662.81
2022-10-17T20:49:06.945Z,98660.28
2022-10-17T20:51:35.131Z,98670.06
2022-10-17T20:54:02.875Z,98665.06
2022-10-17T20:56:32.143Z,98668.88
2022-10-17T20:59:05.749Z,98675.28
2022-10-17T21:01:35.524Z,98672.94
2022-10-17T21:04:26.980Z,98676.75
2022-10-17T21:06:52.001Z,98683.91
2022-10-17T21:09:19.644Z,98680.78
2022-10-17T21:11:46.540Z,98683.66
2022-10-17T21:14:13.444Z,98679.63
2022-10-17T21:16:41.273Z,98672.22
2022-10-17T21:19:10.528Z,98680.31
2022-10-17T21:21:41.505Z,98673.78
2022-10-17T21:24:16.773Z,98677.44
2022-10-17T21:26:45.484Z,98683.88
2022-10-17T21:29:13.927Z,98675.56
2022-10-17T21:31:44.573Z,98669.81
2022-10-17T21:34:15.044Z,98677.91
2022-10-17T21:36:42.396Z,98684.09
2022-10-17T21:39:19.775Z,98681.59
2022-10-17T21:41:46.704Z,98682.78
2022-10-17T21:44:18.003Z,98688.03
2022-10-17T21:46:46.068Z,98685.75
2022-10-17T21:49:15.621Z,98684.44
2022-10-17T21:51:43.048Z,98689.06
2022-10-17T21:54:10.058Z,98685.72
2022-10-17T21:56:37.153Z,98679.84
2022-10-17T21:59:05.341Z,98674.88
2022-10-17T22:01:40.220Z,98668.22
2022-10-17T22:04:11.806Z,98660.69
2022-10-17T22:06:41.392Z,98666.16
2022-10-17T22:09:23.340Z,98665.44
2022-10-17T22:11:55.114Z,98664.84
2022-10-17T22:14:24.791Z,98676.47
2022-10-17T22:16:52.174Z,98673.97
2022-10-17T22:19:26.320Z,98664.47
2022-10-17T22:21:54.258Z,98670.88
2022-10-17T22:24:22.476Z,98660.84
2022-10-17T22:26:49.667Z,98664.66
2022-10-17T22:29:16.761Z,98656.22
2022-10-17T22:31:43.623Z,98656.34
2022-10-17T22:34:13.689Z,98660.81
2022-10-17T22:36:41.344Z,98659.97
2022-10-17T22:39:09.280Z,98664.59
2022-10-17T22:41:36.611Z,98677.91
2022-10-17T22:44:03.875Z,98683.97
2022-10-17T22:46:30.801Z,98683.13
2022-10-17T22:48:57.599Z,98681.47
2022-10-17T22:53:56.504Z,98673.94
2022-10-17T22:56:23.539Z,98661.22
2022-10-17T22:58:51.552Z,98655.41
2022-10-17T23:01:23.811Z,98661.47
2022-10-17T23:03:52.697Z,98664.31
2022-10-17T23:06:20.638Z,98656.66
2022-10-17T23:08:47.747Z,98662.72
2022-10-17T23:11:14.571Z,98660.44
2022-10-17T23:13:41.493Z,98656.28
2022-10-17T23:16:09.327Z,98657.25
2022-10-17T23:18:38.698Z,98657.56
2022-10-17T23:21:06.979Z,98656.13
2022-10-17T23:23:33.897Z,98650.19
2022-10-17T23:26:13.219Z,98649.47
2022-10-17T23:28:41.349Z,98651.22
2022-10-17T23:31:21.413Z,98647.19
2022-10-17T23:33:50.010Z,98652.50
2022-10-17T23:36:20.261Z,98646.56
2022-10-17T23:38:48.183Z,98651.06
2022-10-17T23:41:16.136Z,98640.84
2022-10-17T23:43:43.776Z,98650.69
2022-10-17T23:46:10.560Z,98647.22
2022-10-17T23:48:38.698Z,98641.25
2022-10-17T23:51:07.078Z,98653.47
2022-10-17T23:53:33.887Z,98642.22
2022-10-17T23:56:00.804Z,98637.22
2022-10-17T23:58:27.637Z,98643.38
